sensor_id;sensor_type;location;lat;lon;timestamp;P1;durP1;ratioP1;P2;durP2;ratioP2
21175;SDS011;10746;50.178;8.186;2023-01-08T00:00:13;6.50;;;4.67;;
21175;SDS011;10746;50.178;8.186;2023-01-08T00:02:41;7.67;;;4.60;;
21175;SDS011;10746;50.178;8.186;2023-01-08T00:05:08;6.30;;;4.07;;
21175;SDS011;10746;50.178;8.186;2023-01-08T00:07:36;5.57;;;4.53;;
21175;SDS011;10746;50.178;8.186;2023-01-08T00:10:03;6.87;;;5.23;;
21175;SDS011;10746;50.178;8.186;2023-01-08T00:12:30;6.73;;;4.90;;
21175;SDS011;10746;50.178;8.186;2023-01-08T00:14:58;7.93;;;5.80;;
21175;SDS011;10746;50.178;8.186;2023-01-08T00:17:25;7.27;;;5.27;;
21175;SDS011;10746;50.178;8.186;2023-01-08T00:19:53;9.40;;;5.70;;
21175;SDS011;10746;50.178;8.186;2023-01-08T00:22:20;7.27;;;5.43;;
21175;SDS011;10746;50.178;8.186;2023-01-08T00:24:46;7.87;;;5.87;;
21175;SDS011;10746;50.178;8.186;2023-01-08T00:27:13;9.60;;;6.30;;
21175;SDS011;10746;50.178;8.186;2023-01-08T00:29:40;6.70;;;5.53;;
21175;SDS011;10746;50.178;8.186;2023-01-08T00:32:07;10.13;;;6.80;;
21175;SDS011;10746;50.178;8.186;2023-01-08T00:34:33;10.00;;;6.30;;
21175;SDS011;10746;50.178;8.186;2023-01-08T00:37:01;10.63;;;6.43;;
21175;SDS011;10746;50.178;8.186;2023-01-08T00:39:28;8.63;;;6.40;;
21175;SDS011;10746;50.178;8.186;2023-01-08T00:41:55;8.43;;;5.60;;
21175;SDS011;10746;50.178;8.186;2023-01-08T00:44:22;9.17;;;6.37;;
21175;SDS011;10746;50.178;8.186;2023-01-08T00:46:48;8.90;;;6.27;;
21175;SDS011;10746;50.178;8.186;2023-01-08T00:49:15;8.53;;;5.70;;
21175;SDS011;10746;50.178;8.186;2023-01-08T00:51:42;8.93;;;5.73;;
21175;SDS011;10746;50.178;8.186;2023-01-08T00:54:10;9.53;;;5.80;;
21175;SDS011;10746;50.178;8.186;2023-01-08T00:56:37;9.40;;;5.87;;
21175;SDS011;10746;50.178;8.186;2023-01-08T00:59:04;7.33;;;5.20;;
21175;SDS011;10746;50.178;8.186;2023-01-08T01:01:31;7.27;;;5.47;;
21175;SDS011;10746;50.178;8.186;2023-01-08T01:03:58;7.17;;;5.13;;
21175;SDS011;10746;50.178;8.186;2023-01-08T01:06:24;9.47;;;5.70;;
21175;SDS011;10746;50.178;8.186;2023-01-08T01:08:51;7.73;;;5.57;;
21175;SDS011;10746;50.178;8.186;2023-01-08T01:11:20;7.37;;;5.07;;
21175;SDS011;10746;50.178;8.186;2023-01-08T01:13:49;5.33;;;4.47;;
21175;SDS011;10746;50.178;8.186;2023-01-08T01:16:16;4.67;;;3.93;;
21175;SDS011;10746;50.178;8.186;2023-01-08T01:18:43;12.30;;;6.30;;
21175;SDS011;10746;50.178;8.186;2023-01-08T01:21:10;9.63;;;5.77;;
21175;SDS011;10746;50.178;8.186;2023-01-08T01:23:46;7.43;;;5.30;;
21175;SDS011;10746;50.178;8.186;2023-01-08T01:26:14;17.07;;;8.83;;
21175;SDS011;10746;50.178;8.186;2023-01-08T01:28:45;4.83;;;4.13;;
21175;SDS011;10746;50.178;8.186;2023-01-08T01:31:12;6.03;;;4.27;;
21175;SDS011;10746;50.178;8.186;2023-01-08T01:33:40;9.57;;;4.40;;
21175;SDS011;10746;50.178;8.186;2023-01-08T01:36:08;5.83;;;4.67;;
21175;SDS011;10746;50.178;8.186;2023-01-08T01:38:36;4.77;;;4.23;;
21175;SDS011;10746;50.178;8.186;2023-01-08T01:41:03;5.57;;;4.40;;
21175;SDS011;10746;50.178;8.186;2023-01-08T01:43:34;5.03;;;3.77;;
21175;SDS011;10746;50.178;8.186;2023-01-08T01:46:03;4.43;;;4.00;;
21175;SDS011;10746;50.178;8.186;2023-01-08T01:48:40;7.83;;;4.53;;
21175;SDS011;10746;50.178;8.186;2023-01-08T01:51:06;5.03;;;3.93;;
21175;SDS011;10746;50.178;8.186;2023-01-08T01:53:33;6.10;;;4.50;;
21175;SDS011;10746;50.178;8.186;2023-01-08T01:56:01;7.37;;;5.27;;
21175;SDS011;10746;50.178;8.186;2023-01-08T01:58:30;4.60;;;4.13;;
21175;SDS011;10746;50.178;8.186;2023-01-08T02:00:58;7.20;;;5.00;;
21175;SDS011;10746;50.178;8.186;2023-01-08T02:03:32;7.47;;;4.97;;
21175;SDS011;10746;50.178;8.186;2023-01-08T02:06:02;7.30;;;4.97;;
21175;SDS011;10746;50.178;8.186;2023-01-08T02:08:41;7.03;;;4.90;;
21175;SDS011;10746;50.178;8.186;2023-01-08T02:11:18;5.50;;;4.70;;
21175;SDS011;10746;50.178;8.186;2023-01-08T02:13:49;7.40;;;4.87;;
21175;SDS011;10746;50.178;8.186;2023-01-08T02:16:25;6.93;;;5.10;;
21175;SDS011;10746;50.178;8.186;2023-01-08T02:19:02;7.23;;;4.67;;
21175;SDS011;10746;50.178;8.186;2023-01-08T02:21:35;7.80;;;4.70;;
21175;SDS011;10746;50.178;8.186;2023-01-08T02:24:11;6.03;;;5.03;;
21175;SDS011;10746;50.178;8.186;2023-01-08T02:26:45;6.70;;;4.70;;
21175;SDS011;10746;50.178;8.186;2023-01-08T02:29:13;5.77;;;4.50;;
21175;SDS011;10746;50.178;8.186;2023-01-08T02:31:42;5.37;;;4.47;;
21175;SDS011;10746;50.178;8.186;2023-01-08T02:34:09;5.93;;;4.67;;
21175;SDS011;10746;50.178;8.186;2023-01-08T02:36:37;5.93;;;4.73;;
21175;SDS011;10746;50.178;8.186;2023-01-08T02:39:14;6.00;;;4.87;;
21175;SDS011;10746;50.178;8.186;2023-01-08T02:41:54;5.67;;;5.03;;
21175;SDS011;10746;50.178;8.186;2023-01-08T02:44:31;5.77;;;4.73;;
21175;SDS011;10746;50.178;8.186;2023-01-08T02:47:07;5.97;;;4.97;;
21175;SDS011;10746;50.178;8.186;2023-01-08T02:49:41;5.70;;;4.80;;
21175;SDS011;10746;50.178;8.186;2023-01-08T02:52:11;7.83;;;5.13;;
21175;SDS011;10746;50.178;8.186;2023-01-08T02:54:41;5.37;;;4.50;;
21175;SDS011;10746;50.178;8.186;2023-01-08T02:57:11;5.83;;;4.40;;
21175;SDS011;10746;50.178;8.186;2023-01-08T02:59:40;6.43;;;4.93;;
21175;SDS011;10746;50.178;8.186;2023-01-08T03:02:10;5.97;;;4.77;;
21175;SDS011;10746;50.178;8.186;2023-01-08T03:04:38;7.37;;;5.27;;
21175;SDS011;10746;50.178;8.186;2023-01-08T03:07:11;6.67;;;5.33;;
21175;SDS011;10746;50.178;8.186;2023-01-08T03:09:38;8.03;;;5.03;;
21175;SDS011;10746;50.178;8.186;2023-01-08T03:12:06;7.87;;;5.47;;
21175;SDS011;10746;50.178;8.186;2023-01-08T03:14:38;7.43;;;5.40;;
21175;SDS011;10746;50.178;8.186;2023-01-08T03:17:12;6.70;;;5.40;;
21175;SDS011;10746;50.178;8.186;2023-01-08T03:19:46;6.60;;;5.90;;
21175;SDS011;10746;50.178;8.186;2023-01-08T03:22:16;9.47;;;6.07;;
21175;SDS011;10746;50.178;8.186;2023-01-08T03:24:44;6.40;;;5.50;;
21175;SDS011;10746;50.178;8.186;2023-01-08T03:27:16;6.33;;;5.33;;
21175;SDS011;10746;50.178;8.186;2023-01-08T03:29:48;5.73;;;5.13;;
21175;SDS011;10746;50.178;8.186;2023-01-08T03:32:17;5.97;;;5.07;;
21175;SDS011;10746;50.178;8.186;2023-01-08T03:34:47;7.23;;;5.33;;
21175;SDS011;10746;50.178;8.186;2023-01-08T03:37:18;6.70;;;5.30;;
21175;SDS011;10746;50.178;8.186;2023-01-08T03:39:50;7.20;;;5.10;;
21175;SDS011;10746;50.178;8.186;2023-01-08T03:42:20;10.03;;;5.47;;
21175;SDS011;10746;50.178;8.186;2023-01-08T03:44:49;8.63;;;5.97;;
21175;SDS011;10746;50.178;8.186;2023-01-08T03:47:16;9.20;;;5.57;;
21175;SDS011;10746;50.178;8.186;2023-01-08T03:49:47;6.83;;;5.63;;
21175;SDS011;10746;50.178;8.186;2023-01-08T03:52:20;6.00;;;5.10;;
21175;SDS011;10746;50.178;8.186;2023-01-08T03:54:47;6.93;;;5.33;;
21175;SDS011;10746;50.178;8.186;2023-01-08T03:57:14;7.00;;;5.60;;
21175;SDS011;10746;50.178;8.186;2023-01-08T03:59:41;6.83;;;5.30;;
21175;SDS011;10746;50.178;8.186;2023-01-08T04:02:09;7.30;;;5.80;;
21175;SDS011;10746;50.178;8.186;2023-01-08T04:04:35;6.23;;;5.30;;
21175;SDS011;10746;50.178;8.186;2023-01-08T04:07:03;7.43;;;4.43;;
21175;SDS011;10746;50.178;8.186;2023-01-08T04:09:29;5.97;;;4.30;;
21175;SDS011;10746;50.178;8.186;2023-01-08T04:11:56;5.67;;;4.47;;
21175;SDS011;10746;50.178;8.186;2023-01-08T04:14:23;5.50;;;4.63;;
21175;SDS011;10746;50.178;8.186;2023-01-08T04:16:50;5.40;;;4.77;;
21175;SDS011;10746;50.178;8.186;2023-01-08T04:19:18;7.70;;;5.43;;
21175;SDS011;10746;50.178;8.186;2023-01-08T04:21:44;5.33;;;4.83;;
21175;SDS011;10746;50.178;8.186;2023-01-08T04:24:11;6.27;;;5.00;;
21175;SDS011;10746;50.178;8.186;2023-01-08T04:26:38;8.77;;;5.10;;
21175;SDS011;10746;50.178;8.186;2023-01-08T04:29:05;5.67;;;4.47;;
21175;SDS011;10746;50.178;8.186;2023-01-08T04:31:31;5.50;;;4.80;;
21175;SDS011;10746;50.178;8.186;2023-01-08T04:33:58;5.70;;;4.50;;
21175;SDS011;10746;50.178;8.186;2023-01-08T04:36:26;5.73;;;4.37;;
21175;SDS011;10746;50.178;8.186;2023-01-08T04:38:53;6.43;;;4.50;;
21175;SDS011;10746;50.178;8.186;2023-01-08T04:41:20;5.33;;;4.70;;
21175;SDS011;10746;50.178;8.186;2023-01-08T04:43:47;4.80;;;4.33;;
21175;SDS011;10746;50.178;8.186;2023-01-08T04:46:13;6.30;;;4.60;;
21175;SDS011;10746;50.178;8.186;2023-01-08T04:48:40;5.37;;;4.43;;
21175;SDS011;10746;50.178;8.186;2023-01-08T04:51:07;6.53;;;5.07;;
21175;SDS011;10746;50.178;8.186;2023-01-08T04:53:35;5.17;;;4.20;;
21175;SDS011;10746;50.178;8.186;2023-01-08T04:56:04;5.83;;;4.57;;
21175;SDS011;10746;50.178;8.186;2023-01-08T04:58:33;6.50;;;4.20;;
21175;SDS011;10746;50.178;8.186;2023-01-08T05:01:00;4.40;;;4.00;;
21175;SDS011;10746;50.178;8.186;2023-01-08T05:03:35;3.47;;;3.17;;
21175;SDS011;10746;50.178;8.186;2023-01-08T05:06:02;4.07;;;3.23;;
21175;SDS011;10746;50.178;8.186;2023-01-08T05:08:28;3.70;;;3.40;;
21175;SDS011;10746;50.178;8.186;2023-01-08T05:10:58;3.67;;;3.37;;
21175;SDS011;10746;50.178;8.186;2023-01-08T05:13:25;3.47;;;3.17;;
21175;SDS011;10746;50.178;8.186;2023-01-08T05:15:53;3.20;;;3.00;;
21175;SDS011;10746;50.178;8.186;2023-01-08T05:18:19;3.20;;;2.93;;
21175;SDS011;10746;50.178;8.186;2023-01-08T05:20:46;4.00;;;3.60;;
21175;SDS011;10746;50.178;8.186;2023-01-08T05:23:13;3.60;;;3.30;;
21175;SDS011;10746;50.178;8.186;2023-01-08T05:25:40;4.00;;;3.60;;
21175;SDS011;10746;50.178;8.186;2023-01-08T05:28:08;7.73;;;3.40;;
21175;SDS011;10746;50.178;8.186;2023-01-08T05:30:35;3.00;;;2.80;;
21175;SDS011;10746;50.178;8.186;2023-01-08T05:33:01;3.63;;;3.33;;
21175;SDS011;10746;50.178;8.186;2023-01-08T05:35:28;3.77;;;3.43;;
21175;SDS011;10746;50.178;8.186;2023-01-08T05:37:55;3.47;;;3.03;;
21175;SDS011;10746;50.178;8.186;2023-01-08T05:40:24;3.30;;;3.00;;
21175;SDS011;10746;50.178;8.186;2023-01-08T05:42:51;2.77;;;2.30;;
21175;SDS011;10746;50.178;8.186;2023-01-08T05:45:19;2.80;;;2.60;;
21175;SDS011;10746;50.178;8.186;2023-01-08T05:47:45;2.57;;;2.43;;
21175;SDS011;10746;50.178;8.186;2023-01-08T05:50:12;2.67;;;2.47;;
21175;SDS011;10746;50.178;8.186;2023-01-08T05:52:39;1.90;;;1.80;;
21175;SDS011;10746;50.178;8.186;2023-01-08T05:55:06;1.90;;;1.80;;
21175;SDS011;10746;50.178;8.186;2023-01-08T05:57:33;2.00;;;1.90;;
21175;SDS011;10746;50.178;8.186;2023-01-08T06:00:00;1.77;;;1.70;;
21175;SDS011;10746;50.178;8.186;2023-01-08T06:02:28;2.13;;;2.03;;
21175;SDS011;10746;50.178;8.186;2023-01-08T06:04:55;2.13;;;1.93;;
21175;SDS011;10746;50.178;8.186;2023-01-08T06:07:21;2.13;;;2.03;;
21175;SDS011;10746;50.178;8.186;2023-01-08T06:09:48;1.80;;;1.70;;
21175;SDS011;10746;50.178;8.186;2023-01-08T06:12:15;2.10;;;1.90;;
21175;SDS011;10746;50.178;8.186;2023-01-08T06:14:41;1.90;;;1.80;;
21175;SDS011;10746;50.178;8.186;2023-01-08T06:17:08;2.00;;;1.90;;
21175;SDS011;10746;50.178;8.186;2023-01-08T06:19:36;2.10;;;2.00;;
21175;SDS011;10746;50.178;8.186;2023-01-08T06:22:03;2.03;;;1.93;;
21175;SDS011;10746;50.178;8.186;2023-01-08T06:24:30;2.53;;;2.40;;
21175;SDS011;10746;50.178;8.186;2023-01-08T06:26:57;2.50;;;2.30;;
21175;SDS011;10746;50.178;8.186;2023-01-08T06:29:24;2.40;;;2.10;;
21175;SDS011;10746;50.178;8.186;2023-01-08T06:31:50;2.60;;;2.07;;
21175;SDS011;10746;50.178;8.186;2023-01-08T06:34:17;3.07;;;2.27;;
21175;SDS011;10746;50.178;8.186;2023-01-08T06:36:45;2.70;;;2.50;;
21175;SDS011;10746;50.178;8.186;2023-01-08T06:39:12;2.10;;;2.00;;
21175;SDS011;10746;50.178;8.186;2023-01-08T06:41:39;2.67;;;2.43;;
21175;SDS011;10746;50.178;8.186;2023-01-08T06:44:05;2.93;;;2.70;;
21175;SDS011;10746;50.178;8.186;2023-01-08T06:46:32;3.13;;;2.83;;
21175;SDS011;10746;50.178;8.186;2023-01-08T06:49:02;3.40;;;3.10;;
21175;SDS011;10746;50.178;8.186;2023-01-08T06:51:28;3.40;;;3.10;;
21175;SDS011;10746;50.178;8.186;2023-01-08T06:53:57;2.97;;;2.70;;
21175;SDS011;10746;50.178;8.186;2023-01-08T06:56:23;3.87;;;2.77;;
21175;SDS011;10746;50.178;8.186;2023-01-08T06:58:50;3.97;;;3.20;;
21175;SDS011;10746;50.178;8.186;2023-01-08T07:01:17;4.70;;;2.93;;
21175;SDS011;10746;50.178;8.186;2023-01-08T07:03:44;3.10;;;2.73;;
21175;SDS011;10746;50.178;8.186;2023-01-08T07:06:12;2.80;;;2.60;;
21175;SDS011;10746;50.178;8.186;2023-01-08T07:08:40;5.03;;;2.70;;
21175;SDS011;10746;50.178;8.186;2023-01-08T07:11:08;2.93;;;2.63;;
21175;SDS011;10746;50.178;8.186;2023-01-08T07:13:35;2.90;;;2.70;;
21175;SDS011;10746;50.178;8.186;2023-01-08T07:16:05;3.30;;;3.00;;
21175;SDS011;10746;50.178;8.186;2023-01-08T07:18:32;4.50;;;2.53;;
21175;SDS011;10746;50.178;8.186;2023-01-08T07:21:00;2.73;;;2.53;;
21175;SDS011;10746;50.178;8.186;2023-01-08T07:23:27;3.50;;;3.10;;
21175;SDS011;10746;50.178;8.186;2023-01-08T07:25:54;5.80;;;3.73;;
21175;SDS011;10746;50.178;8.186;2023-01-08T07:28:22;4.67;;;3.50;;
21175;SDS011;10746;50.178;8.186;2023-01-08T07:30:49;4.83;;;3.50;;
21175;SDS011;10746;50.178;8.186;2023-01-08T07:33:15;4.20;;;3.80;;
21175;SDS011;10746;50.178;8.186;2023-01-08T07:35:42;3.70;;;3.40;;
21175;SDS011;10746;50.178;8.186;2023-01-08T07:38:09;5.30;;;4.33;;
21175;SDS011;10746;50.178;8.186;2023-01-08T07:40:35;4.40;;;4.00;;
21175;SDS011;10746;50.178;8.186;2023-01-08T07:43:03;3.03;;;2.83;;
21175;SDS011;10746;50.178;8.186;2023-01-08T07:45:32;3.30;;;3.00;;
21175;SDS011;10746;50.178;8.186;2023-01-08T07:47:58;2.93;;;2.73;;
21175;SDS011;10746;50.178;8.186;2023-01-08T07:50:26;3.37;;;3.17;;
21175;SDS011;10746;50.178;8.186;2023-01-08T07:52:55;3.97;;;3.57;;
21175;SDS011;10746;50.178;8.186;2023-01-08T07:55:23;3.40;;;3.10;;
21175;SDS011;10746;50.178;8.186;2023-01-08T07:57:50;4.00;;;3.40;;
21175;SDS011;10746;50.178;8.186;2023-01-08T08:00:17;4.93;;;3.83;;
21175;SDS011;10746;50.178;8.186;2023-01-08T08:02:45;3.87;;;3.57;;
21175;SDS011;10746;50.178;8.186;2023-01-08T08:05:12;4.80;;;3.77;;
21175;SDS011;10746;50.178;8.186;2023-01-08T08:07:39;5.37;;;3.90;;
21175;SDS011;10746;50.178;8.186;2023-01-08T08:10:06;4.43;;;4.03;;
21175;SDS011;10746;50.178;8.186;2023-01-08T08:12:33;4.33;;;3.93;;
21175;SDS011;10746;50.178;8.186;2023-01-08T08:15:00;4.50;;;4.10;;
21175;SDS011;10746;50.178;8.186;2023-01-08T08:17:26;6.73;;;4.53;;
21175;SDS011;10746;50.178;8.186;2023-01-08T08:19:54;4.80;;;4.30;;
21175;SDS011;10746;50.178;8.186;2023-01-08T08:22:21;5.90;;;4.77;;
21175;SDS011;10746;50.178;8.186;2023-01-08T08:24:48;5.90;;;4.33;;
21175;SDS011;10746;50.178;8.186;2023-01-08T08:27:15;6.07;;;4.60;;
21175;SDS011;10746;50.178;8.186;2023-01-08T08:29:41;5.10;;;4.60;;
21175;SDS011;10746;50.178;8.186;2023-01-08T08:32:08;5.13;;;4.57;;
21175;SDS011;10746;50.178;8.186;2023-01-08T08:34:35;5.03;;;3.67;;
21175;SDS011;10746;50.178;8.186;2023-01-08T08:37:03;4.00;;;3.43;;
21175;SDS011;10746;50.178;8.186;2023-01-08T08:39:30;2.17;;;2.07;;
21175;SDS011;10746;50.178;8.186;2023-01-08T08:41:57;2.50;;;2.40;;
21175;SDS011;10746;50.178;8.186;2023-01-08T08:44:23;2.03;;;1.93;;
21175;SDS011;10746;50.178;8.186;2023-01-08T08:46:50;2.50;;;2.40;;
21175;SDS011;10746;50.178;8.186;2023-01-08T08:49:17;4.50;;;2.53;;
21175;SDS011;10746;50.178;8.186;2023-01-08T08:51:44;2.77;;;2.20;;
21175;SDS011;10746;50.178;8.186;2023-01-08T08:54:12;2.40;;;2.20;;
21175;SDS011;10746;50.178;8.186;2023-01-08T08:56:39;3.27;;;2.97;;
21175;SDS011;10746;50.178;8.186;2023-01-08T08:59:05;3.40;;;3.10;;
21175;SDS011;10746;50.178;8.186;2023-01-08T09:01:33;3.30;;;3.10;;
21175;SDS011;10746;50.178;8.186;2023-01-08T09:04:00;2.90;;;2.70;;
21175;SDS011;10746;50.178;8.186;2023-01-08T09:06:27;3.20;;;2.90;;
21175;SDS011;10746;50.178;8.186;2023-01-08T09:08:54;3.33;;;3.03;;
21175;SDS011;10746;50.178;8.186;2023-01-08T09:11:22;2.70;;;2.50;;
21175;SDS011;10746;50.178;8.186;2023-01-08T09:13:48;2.80;;;2.60;;
21175;SDS011;10746;50.178;8.186;2023-01-08T09:16:15;2.50;;;2.30;;
21175;SDS011;10746;50.178;8.186;2023-01-08T09:18:42;2.60;;;2.50;;
21175;SDS011;10746;50.178;8.186;2023-01-08T09:21:13;2.20;;;2.10;;
21175;SDS011;10746;50.178;8.186;2023-01-08T09:23:40;2.40;;;2.23;;
21175;SDS011;10746;50.178;8.186;2023-01-08T09:26:07;2.43;;;2.23;;
21175;SDS011;10746;50.178;8.186;2023-01-08T09:28:36;2.30;;;2.20;;
21175;SDS011;10746;50.178;8.186;2023-01-08T09:31:03;2.43;;;2.27;;
21175;SDS011;10746;50.178;8.186;2023-01-08T09:33:30;2.37;;;2.20;;
21175;SDS011;10746;50.178;8.186;2023-01-08T09:35:57;2.10;;;2.00;;
21175;SDS011;10746;50.178;8.186;2023-01-08T09:38:24;2.03;;;1.93;;
21175;SDS011;10746;50.178;8.186;2023-01-08T09:40:52;2.50;;;2.40;;
21175;SDS011;10746;50.178;8.186;2023-01-08T09:43:22;2.20;;;2.10;;
21175;SDS011;10746;50.178;8.186;2023-01-08T09:45:53;2.30;;;2.20;;
21175;SDS011;10746;50.178;8.186;2023-01-08T09:48:22;2.30;;;2.20;;
21175;SDS011;10746;50.178;8.186;2023-01-08T09:50:52;2.10;;;2.00;;
21175;SDS011;10746;50.178;8.186;2023-01-08T09:53:19;2.00;;;1.90;;
21175;SDS011;10746;50.178;8.186;2023-01-08T09:55:47;2.60;;;2.50;;
21175;SDS011;10746;50.178;8.186;2023-01-08T09:58:21;2.83;;;2.43;;
21175;SDS011;10746;50.178;8.186;2023-01-08T10:00:54;2.40;;;2.20;;
21175;SDS011;10746;50.178;8.186;2023-01-08T10:03:22;1.90;;;1.80;;
21175;SDS011;10746;50.178;8.186;2023-01-08T10:05:53;1.83;;;1.73;;
21175;SDS011;10746;50.178;8.186;2023-01-08T10:08:20;2.20;;;2.00;;
21175;SDS011;10746;50.178;8.186;2023-01-08T10:10:47;1.97;;;1.87;;
21175;SDS011;10746;50.178;8.186;2023-01-08T10:13:14;2.20;;;2.10;;
21175;SDS011;10746;50.178;8.186;2023-01-08T10:15:41;2.00;;;1.90;;
21175;SDS011;10746;50.178;8.186;2023-01-08T10:18:10;1.63;;;1.60;;
21175;SDS011;10746;50.178;8.186;2023-01-08T10:20:39;1.90;;;1.80;;
21175;SDS011;10746;50.178;8.186;2023-01-08T10:23:10;1.60;;;1.60;;
21175;SDS011;10746;50.178;8.186;2023-01-08T10:25:48;1.80;;;1.70;;
21175;SDS011;10746;50.178;8.186;2023-01-08T10:28:18;2.17;;;2.07;;
21175;SDS011;10746;50.178;8.186;2023-01-08T10:30:47;1.80;;;1.70;;
21175;SDS011;10746;50.178;8.186;2023-01-08T10:33:18;1.83;;;1.73;;
21175;SDS011;10746;50.178;8.186;2023-01-08T10:35:51;2.87;;;1.97;;
21175;SDS011;10746;50.178;8.186;2023-01-08T10:38:23;1.83;;;1.73;;
21175;SDS011;10746;50.178;8.186;2023-01-08T10:40:52;2.00;;;1.90;;
21175;SDS011;10746;50.178;8.186;2023-01-08T10:43:21;2.20;;;2.10;;
21175;SDS011;10746;50.178;8.186;2023-01-08T10:45:55;2.23;;;2.03;;
21175;SDS011;10746;50.178;8.186;2023-01-08T10:48:27;2.40;;;2.30;;
21175;SDS011;10746;50.178;8.186;2023-01-08T10:51:05;2.10;;;2.00;;
21175;SDS011;10746;50.178;8.186;2023-01-08T10:53:38;2.50;;;2.20;;
21175;SDS011;10746;50.178;8.186;2023-01-08T10:56:05;2.30;;;2.20;;
21175;SDS011;10746;50.178;8.186;2023-01-08T10:58:43;2.50;;;2.40;;
21175;SDS011;10746;50.178;8.186;2023-01-08T11:01:10;2.17;;;2.07;;
21175;SDS011;10746;50.178;8.186;2023-01-08T11:03:42;2.30;;;2.10;;
21175;SDS011;10746;50.178;8.186;2023-01-08T11:06:16;2.10;;;2.00;;
21175;SDS011;10746;50.178;8.186;2023-01-08T11:08:50;1.93;;;1.83;;
21175;SDS011;10746;50.178;8.186;2023-01-08T11:11:18;1.80;;;1.70;;
21175;SDS011;10746;50.178;8.186;2023-01-08T11:13:54;2.00;;;1.90;;
21175;SDS011;10746;50.178;8.186;2023-01-08T11:16:29;2.50;;;2.10;;
21175;SDS011;10746;50.178;8.186;2023-01-08T11:18:59;2.50;;;2.30;;
21175;SDS011;10746;50.178;8.186;2023-01-08T11:21:27;2.80;;;2.60;;
21175;SDS011;10746;50.178;8.186;2023-01-08T11:24:10;2.70;;;2.50;;
21175;SDS011;10746;50.178;8.186;2023-01-08T11:26:43;2.30;;;2.20;;
21175;SDS011;10746;50.178;8.186;2023-01-08T11:29:14;2.80;;;2.60;;
21175;SDS011;10746;50.178;8.186;2023-01-08T11:31:44;2.70;;;2.50;;
21175;SDS011;10746;50.178;8.186;2023-01-08T11:34:21;2.77;;;2.57;;
21175;SDS011;10746;50.178;8.186;2023-01-08T11:36:55;3.23;;;2.87;;
21175;SDS011;10746;50.178;8.186;2023-01-08T11:39:26;2.93;;;2.67;;
21175;SDS011;10746;50.178;8.186;2023-01-08T11:41:59;3.20;;;2.90;;
21175;SDS011;10746;50.178;8.186;2023-01-08T11:44:46;2.03;;;1.93;;
21175;SDS011;10746;50.178;8.186;2023-01-08T11:47:24;2.57;;;2.20;;
21175;SDS011;10746;50.178;8.186;2023-01-08T11:50:04;3.30;;;2.53;;
21175;SDS011;10746;50.178;8.186;2023-01-08T11:52:54;4.17;;;2.90;;
21175;SDS011;10746;50.178;8.186;2023-01-08T11:55:34;3.83;;;2.80;;
21175;SDS011;10746;50.178;8.186;2023-01-08T11:58:17;3.10;;;2.90;;
21175;SDS011;10746;50.178;8.186;2023-01-08T12:01:06;3.40;;;3.20;;
21175;SDS011;10746;50.178;8.186;2023-01-08T12:03:47;3.30;;;2.73;;
21175;SDS011;10746;50.178;8.186;2023-01-08T12:06:26;2.73;;;2.53;;
21175;SDS011;10746;50.178;8.186;2023-01-08T12:09:05;2.90;;;2.67;;
21175;SDS011;10746;50.178;8.186;2023-01-08T12:11:40;4.33;;;2.80;;
21175;SDS011;10746;50.178;8.186;2023-01-08T12:14:21;2.70;;;2.50;;
21175;SDS011;10746;50.178;8.186;2023-01-08T12:17:18;3.03;;;2.70;;
21175;SDS011;10746;50.178;8.186;2023-01-08T12:20:10;3.50;;;3.20;;
21175;SDS011;10746;50.178;8.186;2023-01-08T12:22:46;2.80;;;2.60;;
21175;SDS011;10746;50.178;8.186;2023-01-08T12:25:25;3.27;;;3.00;;
21175;SDS011;10746;50.178;8.186;2023-01-08T12:28:08;3.27;;;2.97;;
21175;SDS011;10746;50.178;8.186;2023-01-08T12:30:45;3.30;;;3.00;;
21175;SDS011;10746;50.178;8.186;2023-01-08T12:33:26;3.53;;;3.23;;
21175;SDS011;10746;50.178;8.186;2023-01-08T12:35:59;2.20;;;2.00;;
21175;SDS011;10746;50.178;8.186;2023-01-08T12:38:31;2.23;;;2.13;;
21175;SDS011;10746;50.178;8.186;2023-01-08T12:41:02;2.43;;;2.33;;
21175;SDS011;10746;50.178;8.186;2023-01-08T12:43:32;2.20;;;2.10;;
21175;SDS011;10746;50.178;8.186;2023-01-08T12:46:08;1.90;;;1.57;;
21175;SDS011;10746;50.178;8.186;2023-01-08T12:48:37;2.30;;;2.10;;
21175;SDS011;10746;50.178;8.186;2023-01-08T12:51:05;2.60;;;1.97;;
21175;SDS011;10746;50.178;8.186;2023-01-08T12:53:39;2.73;;;2.53;;
21175;SDS011;10746;50.178;8.186;2023-01-08T12:56:14;2.87;;;2.67;;
21175;SDS011;10746;50.178;8.186;2023-01-08T12:58:56;2.57;;;2.30;;
21175;SDS011;10746;50.178;8.186;2023-01-08T13:01:34;3.53;;;2.30;;
21175;SDS011;10746;50.178;8.186;2023-01-08T13:04:06;2.20;;;2.00;;
21175;SDS011;10746;50.178;8.186;2023-01-08T13:06:35;2.00;;;1.90;;
21175;SDS011;10746;50.178;8.186;2023-01-08T13:09:04;2.60;;;2.40;;
21175;SDS011;10746;50.178;8.186;2023-01-08T13:11:31;2.30;;;2.20;;
21175;SDS011;10746;50.178;8.186;2023-01-08T13:14:01;2.20;;;2.10;;
21175;SDS011;10746;50.178;8.186;2023-01-08T13:16:30;2.00;;;1.77;;
21175;SDS011;10746;50.178;8.186;2023-01-08T13:19:03;1.57;;;1.47;;
21175;SDS011;10746;50.178;8.186;2023-01-08T13:21:34;1.90;;;1.80;;
21175;SDS011;10746;50.178;8.186;2023-01-08T13:24:05;1.67;;;1.57;;
21175;SDS011;10746;50.178;8.186;2023-01-08T13:26:51;1.77;;;1.67;;
21175;SDS011;10746;50.178;8.186;2023-01-08T13:29:22;1.40;;;1.40;;
21175;SDS011;10746;50.178;8.186;2023-01-08T13:31:51;2.33;;;1.57;;
21175;SDS011;10746;50.178;8.186;2023-01-08T13:34:20;1.50;;;1.40;;
21175;SDS011;10746;50.178;8.186;2023-01-08T13:36:58;1.80;;;1.70;;
21175;SDS011;10746;50.178;8.186;2023-01-08T13:39:32;2.10;;;1.70;;
21175;SDS011;10746;50.178;8.186;2023-01-08T13:42:01;2.00;;;1.70;;
21175;SDS011;10746;50.178;8.186;2023-01-08T13:44:40;1.60;;;1.50;;
21175;SDS011;10746;50.178;8.186;2023-01-08T13:47:16;1.90;;;1.80;;
21175;SDS011;10746;50.178;8.186;2023-01-08T13:49:47;1.40;;;1.40;;
21175;SDS011;10746;50.178;8.186;2023-01-08T13:52:34;2.23;;;1.90;;
21175;SDS011;10746;50.178;8.186;2023-01-08T13:55:12;1.80;;;1.70;;
21175;SDS011;10746;50.178;8.186;2023-01-08T13:57:43;4.50;;;3.83;;
21175;SDS011;10746;50.178;8.186;2023-01-08T14:00:16;1.50;;;1.50;;
21175;SDS011;10746;50.178;8.186;2023-01-08T14:02:46;1.87;;;1.77;;
21175;SDS011;10746;50.178;8.186;2023-01-08T14:05:22;2.57;;;1.90;;
21175;SDS011;10746;50.178;8.186;2023-01-08T14:07:51;2.70;;;1.60;;
21175;SDS011;10746;50.178;8.186;2023-01-08T14:10:19;1.33;;;1.33;;
21175;SDS011;10746;50.178;8.186;2023-01-08T14:12:47;2.57;;;1.73;;
21175;SDS011;10746;50.178;8.186;2023-01-08T14:15:16;2.30;;;1.60;;
21175;SDS011;10746;50.178;8.186;2023-01-08T14:17:46;1.50;;;1.40;;
21175;SDS011;10746;50.178;8.186;2023-01-08T14:20:18;1.30;;;1.30;;
21175;SDS011;10746;50.178;8.186;2023-01-08T14:22:53;1.50;;;1.40;;
21175;SDS011;10746;50.178;8.186;2023-01-08T14:25:22;1.00;;;1.00;;
21175;SDS011;10746;50.178;8.186;2023-01-08T14:27:55;1.10;;;1.03;;
21175;SDS011;10746;50.178;8.186;2023-01-08T14:30:24;1.93;;;1.37;;
21175;SDS011;10746;50.178;8.186;2023-01-08T14:32:51;1.47;;;1.37;;
21175;SDS011;10746;50.178;8.186;2023-01-08T14:35:22;1.50;;;1.40;;
21175;SDS011;10746;50.178;8.186;2023-01-08T14:37:53;1.37;;;1.37;;
21175;SDS011;10746;50.178;8.186;2023-01-08T14:40:26;1.70;;;1.60;;
21175;SDS011;10746;50.178;8.186;2023-01-08T14:42:54;1.40;;;1.40;;
21175;SDS011;10746;50.178;8.186;2023-01-08T14:45:25;1.50;;;1.40;;
21175;SDS011;10746;50.178;8.186;2023-01-08T14:47:53;1.50;;;1.40;;
21175;SDS011;10746;50.178;8.186;2023-01-08T14:50:24;2.10;;;1.50;;
21175;SDS011;10746;50.178;8.186;2023-01-08T14:52:51;1.60;;;1.50;;
21175;SDS011;10746;50.178;8.186;2023-01-08T14:55:23;2.23;;;1.27;;
21175;SDS011;10746;50.178;8.186;2023-01-08T14:57:52;1.90;;;1.40;;
21175;SDS011;10746;50.178;8.186;2023-01-08T15:00:21;2.50;;;1.57;;
21175;SDS011;10746;50.178;8.186;2023-01-08T15:02:51;1.53;;;1.50;;